Marietta, GA (30006)

1:59 AM EDT on May 01, 2017 (GMT -0400)
MGA308 | | Change Station

Elev 1062 ft 33.97 °N, 84.53 °W | Updated 21 minutes ago

Partly Cloudy
Partly Cloudy
67.0 °F
Feels Like 67.0 °F
N
7.0
Wind Variable Wind from SSE

Today
High -- | Low -- °F
--% Chance of Precip.
Yesterday
High -- | Low -- °F
Precip. -- in
Pressure 29.91 in
Visibility 10.0 miles
Clouds Few 900 ft
Dew Point 65 °F
Humidity 92%
Rainfall in
Snow Depth Not available.
6:48 AM 8:22 PM
Waxing Crescent, 30% visible
SPECI KMGE 010526Z AUTO 14006KT 10SM FEW009 20/17 A2993 RMK AO2 DZE0459RAB0459E12DZB12E19 SLP127
Pressure 29.91 in
Visibility 10.0 miles
Clouds Few 900 ft
Dew Point 65 °F
Humidity 92%
Rainfall in
Snow Depth Not available.
6:48 AM 8:22 PM
Waxing Crescent, 30% visible
SPECI KMGE 010526Z AUTO 14006KT 10SM FEW009 20/17 A2993 RMK AO2 DZE0459RAB0459E12DZB12E19 SLP127

Get Severe Weather Alerts

Thanks for signing up!

Be on the lookout for a verification email in your inbox.

You'll start receiving the daily forecast at 8 AM.

×

10-Day Weather Forecast

Almanac

Astronomy

May. 01, 2017 Rise Set
Actual Time
Civil Twilight
Nautical Twilight
Astronomical Twilight
Moon
Length of Visible Light
Length of Day
Tomorrow will be .
, % of the Moon is Illuminated

Today's Extremes

State Highs State Lows

Community

WunderPhotos

WunderBlog® & News

Nearby

Air Quality

  Air Quality AQ Index Pollutant
Not available.

Snow Depth

Station Depth Elevation

Earthquake Activity

City Distance Mag. Time & Date
Minimum magnitude displayed is 2.5.

Coastal Water Temperatures

Place Temperature

Stations

Nearby Weather Stations

Station Location Temp. Windchill Dew Point Humidity Wind Precip. Elev Updated Type
                   

Watches & Warnings

There are currently no watches in effect.